createdAt,value
2022-10-15T00:00:52.142Z,88.38
2022-10-15T00:02:06.978Z,88.40
2022-10-15T00:03:09.185Z,88.43
2022-10-15T00:04:14.172Z,88.65
2022-10-15T00:05:16.385Z,88.69
2022-10-15T00:06:20.374Z,88.63
2022-10-15T00:07:26.398Z,88.62
2022-10-15T00:08:29.510Z,88.84
2022-10-15T00:09:31.446Z,88.89
2022-10-15T00:10:45.790Z,88.98
2022-10-15T00:11:47.633Z,88.98
2022-10-15T00:12:49.956Z,89.04
2022-10-15T00:13:57.351Z,89.19
2022-10-15T00:15:01.645Z,89.18
2022-10-15T00:16:06.422Z,89.21
2022-10-15T00:17:08.701Z,89.29
2022-10-15T00:18:14.056Z,89.05
2022-10-15T00:19:16.123Z,89.21
2022-10-15T00:20:18.535Z,89.11
2022-10-15T00:21:21.533Z,89.29
2022-10-15T00:22:24.497Z,89.18
2022-10-15T00:23:26.595Z,89.29
2022-10-15T00:24:29.210Z,89.23
2022-10-15T00:25:31.984Z,89.19
2022-10-15T00:26:35.221Z,89.08
2022-10-15T00:27:38.265Z,89.02
2022-10-15T00:28:43.270Z,89.06
2022-10-15T00:29:48.704Z,89.26
2022-10-15T00:32:10.644Z,89.43
2022-10-15T00:33:14.323Z,89.22
2022-10-15T00:34:22.019Z,89.48
2022-10-15T00:35:24.047Z,89.60
2022-10-15T00:36:29.241Z,89.69
2022-10-15T00:37:31.866Z,89.68
2022-10-15T00:38:34.998Z,89.80
2022-10-15T00:39:40.066Z,89.87
2022-10-15T00:40:42.755Z,90.07
2022-10-15T00:41:46.089Z,89.81
2022-10-15T00:42:48.385Z,89.89
2022-10-15T00:43:53.485Z,89.91
2022-10-15T00:44:59.792Z,89.80
2022-10-15T00:46:01.974Z,89.80
2022-10-15T00:47:05.839Z,89.87
2022-10-15T00:48:10.092Z,89.66
2022-10-15T00:49:21.113Z,89.82
2022-10-15T00:50:26.879Z,89.86
2022-10-15T00:51:37.860Z,89.86
2022-10-15T00:53:00.788Z,89.90
2022-10-15T00:54:04.128Z,89.79
2022-10-15T00:55:14.925Z,90.02
2022-10-15T00:56:21.346Z,89.80
2022-10-15T00:57:24.589Z,89.86
2022-10-15T00:58:31.527Z,90.17
2022-10-15T00:59:37.161Z,90.12
2022-10-15T01:00:48.707Z,90.07
2022-10-15T01:01:51.960Z,89.88
2022-10-15T01:03:00.041Z,90.03
2022-10-15T01:04:04.415Z,90.10
2022-10-15T01:05:08.117Z,90.12
2022-10-15T01:06:10.035Z,90.11
2022-10-15T01:07:18.359Z,90.23
2022-10-15T01:08:24.051Z,90.37
2022-10-15T01:09:26.486Z,90.17
2022-10-15T01:10:50.479Z,90.42
2022-10-15T01:11:55.874Z,90.40
2022-10-15T01:13:06.647Z,90.43
2022-10-15T01:14:21.016Z,90.46
2022-10-15T01:15:44.293Z,90.47
2022-10-15T01:17:25.212Z,90.51
2022-10-15T01:18:37.679Z,90.51
2022-10-15T01:20:04.103Z,90.47
2022-10-15T01:21:26.582Z,90.61
2022-10-15T01:23:05.764Z,90.47
2022-10-15T01:24:41.943Z,90.53
2022-10-15T01:26:08.868Z,90.43
2022-10-15T01:27:34.698Z,90.52
2022-10-15T01:29:19.147Z,90.49
2022-10-15T01:30:31.303Z,90.53
2022-10-15T01:31:45.059Z,90.66
2022-10-15T01:33:01.210Z,90.59
2022-10-15T01:34:44.098Z,90.56
2022-10-15T01:35:54.395Z,90.52
2022-10-15T01:37:11.205Z,90.59
2022-10-15T01:38:46.592Z,90.71
2022-10-15T01:40:02.752Z,90.58
2022-10-15T01:42:01.489Z,90.63
2022-10-15T01:43:11.850Z,90.64
2022-10-15T01:45:00.855Z,90.64
2022-10-15T01:46:23.329Z,90.68
2022-10-15T01:47:54.230Z,90.68
2022-10-15T01:49:02.400Z,90.73
2022-10-15T01:50:08.665Z,90.77
2022-10-15T01:51:15.488Z,90.83
2022-10-15T01:52:25.652Z,90.90
2022-10-15T01:53:29.212Z,90.67
2022-10-15T01:54:32.079Z,90.76
2022-10-15T01:55:35.860Z,90.79
2022-10-15T01:56:49.150Z,90.72
2022-10-15T01:57:57.893Z,90.90
2022-10-15T02:03:29.903Z,90.95
2022-10-15T02:04:32.123Z,90.88
2022-10-15T02:05:49.313Z,90.99
2022-10-15T02:07:05.360Z,90.92
2022-10-15T02:08:46.319Z,90.88
2022-10-15T02:10:04.986Z,90.97
2022-10-15T02:11:14.004Z,90.99
2022-10-15T02:12:22.135Z,91.12
2022-10-15T02:13:28.921Z,91.00
2022-10-15T02:14:40.796Z,90.85
2022-10-15T02:16:37.358Z,90.91
2022-10-15T02:17:50.210Z,90.97
2022-10-15T02:19:29.788Z,90.83
2022-10-15T02:20:41.080Z,90.80
2022-10-15T02:22:08.454Z,91.01
2022-10-15T02:23:41.433Z,90.96
2022-10-15T02:24:57.153Z,90.95
2022-10-15T02:25:59.393Z,91.05
2022-10-15T02:27:04.297Z,91.06
2022-10-15T02:28:07.638Z,90.91
2022-10-15T02:30:19.827Z,90.91
2022-10-15T02:31:23.263Z,90.87
2022-10-15T02:32:26.876Z,90.76
2022-10-15T02:33:31.639Z,90.78
2022-10-15T02:34:35.402Z,90.82
2022-10-15T02:35:37.905Z,90.96
2022-10-15T02:36:41.639Z,90.84
2022-10-15T02:37:49.673Z,90.84
2022-10-15T02:38:56.284Z,90.80
2022-10-15T02:40:00.219Z,90.93
2022-10-15T02:41:04.090Z,90.76
2022-10-15T02:42:06.139Z,90.67
2022-10-15T02:43:10.596Z,90.64
2022-10-15T02:44:12.714Z,90.62
2022-10-15T02:45:15.378Z,90.70
2022-10-15T02:46:18.837Z,90.59
2022-10-15T02:47:20.659Z,90.72
2022-10-15T02:48:22.664Z,90.75
2022-10-15T02:49:24.729Z,90.66
2022-10-15T02:50:26.528Z,90.36
2022-10-15T02:51:31.886Z,90.28
2022-10-15T02:52:33.774Z,90.33
2022-10-15T02:53:35.755Z,90.38
2022-10-15T02:54:38.457Z,90.33
2022-10-15T02:55:40.700Z,90.31
2022-10-15T02:56:42.675Z,90.56
2022-10-15T02:57:44.438Z,90.55
2022-10-15T02:58:46.545Z,90.54
2022-10-15T02:59:48.488Z,90.57
2022-10-15T03:00:50.347Z,90.48
2022-10-15T03:01:52.414Z,90.60
2022-10-15T03:02:54.299Z,90.70
2022-10-15T03:03:56.233Z,90.86
2022-10-15T03:04:58.036Z,90.78
2022-10-15T03:05:59.858Z,90.79
2022-10-15T03:07:01.979Z,90.84
2022-10-15T03:08:04.915Z,90.94
2022-10-15T03:09:06.893Z,90.91
2022-10-15T03:10:09.053Z,90.92
2022-10-15T03:11:11.261Z,90.84
2022-10-15T03:12:13.022Z,90.92
2022-10-15T03:13:14.996Z,90.84
2022-10-15T03:14:25.950Z,90.80
2022-10-15T03:15:27.924Z,90.84
2022-10-15T03:16:30.160Z,90.77
2022-10-15T03:17:32.415Z,90.92
2022-10-15T03:18:40.582Z,90.97
2022-10-15T03:19:44.488Z,90.81
2022-10-15T03:20:56.650Z,90.66
2022-10-15T03:21:59.287Z,90.83
2022-10-15T03:23:04.716Z,90.89
2022-10-15T03:24:06.795Z,90.85
2022-10-15T03:25:08.881Z,90.78
2022-10-15T03:26:11.053Z,90.70
2022-10-15T03:27:13.078Z,90.55
2022-10-15T03:28:16.171Z,90.73
2022-10-15T03:29:18.513Z,90.80
2022-10-15T03:30:25.801Z,90.59
2022-10-15T03:31:27.703Z,90.52
2022-10-15T03:32:33.064Z,90.66
2022-10-15T03:33:37.673Z,90.56
2022-10-15T03:34:39.749Z,90.55
2022-10-15T03:35:41.842Z,90.76
2022-10-15T03:36:44.073Z,90.87
2022-10-15T03:37:45.976Z,90.88
2022-10-15T03:38:47.841Z,90.82
2022-10-15T03:39:49.503Z,90.60
2022-10-15T03:40:52.369Z,90.80
2022-10-15T03:42:03.402Z,90.88
2022-10-15T03:43:10.138Z,90.80
2022-10-15T03:44:12.152Z,90.83
2022-10-15T03:45:21.010Z,91.03
2022-10-15T03:46:26.365Z,90.89
2022-10-15T03:47:28.165Z,90.89
2022-10-15T03:48:31.305Z,91.13
2022-10-15T03:49:33.206Z,90.96
2022-10-15T03:50:37.009Z,90.90
2022-10-15T03:51:38.968Z,91.12
2022-10-15T03:52:44.548Z,90.92
2022-10-15T03:53:49.579Z,91.00
2022-10-15T03:54:51.568Z,91.01
2022-10-15T03:55:55.243Z,90.90
2022-10-15T03:56:57.560Z,91.09
2022-10-15T03:58:04.484Z,91.11
2022-10-15T03:59:06.314Z,91.05
2022-10-15T04:00:09.023Z,91.23
2022-10-15T04:01:18.312Z,91.14
2022-10-15T04:02:20.941Z,91.20
2022-10-15T04:03:23.509Z,91.02
2022-10-15T04:04:25.650Z,91.10
2022-10-15T04:05:27.889Z,90.96
2022-10-15T04:06:34.611Z,91.00
2022-10-15T04:07:39.061Z,90.86
2022-10-15T04:08:45.876Z,90.82
2022-10-15T04:09:56.309Z,90.87
2022-10-15T04:11:04.368Z,90.84
2022-10-15T04:12:08.147Z,90.89
2022-10-15T04:13:09.925Z,91.03
2022-10-15T04:14:12.690Z,90.91
2022-10-15T04:15:14.628Z,90.82
2022-10-15T04:16:22.605Z,90.68
2022-10-15T04:17:24.403Z,90.68
2022-10-15T04:18:26.423Z,90.55
2022-10-15T04:19:30.184Z,90.61
2022-10-15T04:20:36.526Z,90.60
2022-10-15T04:21:50.375Z,90.58
2022-10-15T04:23:03.110Z,90.44
2022-10-15T04:24:06.506Z,90.58
2022-10-15T04:25:14.813Z,90.63
2022-10-15T04:26:17.918Z,90.20
2022-10-15T04:27:19.785Z,90.50
2022-10-15T04:28:21.626Z,90.47
2022-10-15T04:29:23.641Z,90.42
2022-10-15T04:30:25.818Z,90.40
2022-10-15T04:31:31.767Z,90.31
2022-10-15T04:32:33.684Z,90.23
2022-10-15T04:33:35.754Z,90.31
2022-10-15T04:34:39.003Z,90.16
2022-10-15T04:35:41.022Z,90.42
2022-10-15T04:36:45.081Z,90.54
2022-10-15T04:37:50.007Z,90.63
2022-10-15T04:38:52.551Z,90.52
2022-10-15T04:40:04.607Z,90.57
2022-10-15T04:41:09.688Z,90.60
2022-10-15T04:42:31.597Z,90.39
2022-10-15T04:43:34.244Z,90.32
2022-10-15T04:44:41.629Z,90.31
2022-10-15T04:45:43.623Z,90.18
2022-10-15T04:46:45.838Z,90.51
2022-10-15T04:48:03.383Z,90.33
2022-10-15T04:49:05.602Z,90.48
2022-10-15T04:50:11.259Z,90.52
2022-10-15T04:51:31.914Z,90.61
2022-10-15T04:52:40.755Z,90.69
2022-10-15T04:53:46.107Z,90.62
2022-10-15T04:54:47.950Z,90.72
2022-10-15T04:55:49.884Z,90.64
2022-10-15T04:56:51.740Z,90.72
2022-10-15T04:57:53.960Z,90.74
2022-10-15T04:58:59.298Z,90.78
2022-10-15T05:00:03.885Z,90.72
2022-10-15T05:01:11.776Z,90.61
2022-10-15T05:02:32.499Z,90.54
2022-10-15T05:03:47.604Z,90.22
2022-10-15T05:04:49.640Z,90.03
2022-10-15T05:05:51.512Z,90.13
2022-10-15T05:06:53.294Z,90.14
2022-10-15T05:07:59.264Z,90.16
2022-10-15T05:09:01.594Z,90.00
2022-10-15T05:10:06.465Z,90.06
2022-10-15T05:11:19.800Z,89.99
2022-10-15T05:12:22.445Z,90.00
2022-10-15T05:13:24.188Z,89.91
2022-10-15T05:14:26.085Z,90.05
2022-10-15T05:15:39.811Z,89.88
2022-10-15T05:16:43.225Z,90.16
2022-10-15T05:17:45.048Z,89.78
2022-10-15T05:18:49.261Z,89.68
2022-10-15T05:19:52.268Z,89.78
2022-10-15T05:21:01.087Z,89.64
2022-10-15T05:22:03.040Z,89.81
2022-10-15T05:23:05.969Z,89.97
2022-10-15T05:24:10.010Z,90.08
2022-10-15T05:25:25.038Z,89.98
2022-10-15T05:26:28.928Z,90.17
2022-10-15T05:27:30.878Z,90.12
2022-10-15T05:28:34.134Z,90.26
2022-10-15T05:29:37.712Z,90.20
2022-10-15T05:30:39.470Z,90.12
2022-10-15T05:31:41.321Z,90.29
2022-10-15T05:32:53.969Z,90.26
2022-10-15T05:33:56.697Z,90.39
2022-10-15T05:35:05.503Z,90.62
2022-10-15T05:36:27.512Z,90.61
2022-10-15T05:37:30.363Z,90.80
2022-10-15T05:38:32.175Z,90.62
2022-10-15T05:39:34.298Z,90.68
2022-10-15T05:40:36.184Z,90.50
2022-10-15T05:41:44.254Z,90.70
2022-10-15T05:42:51.156Z,90.77
2022-10-15T05:43:55.782Z,90.83
2022-10-15T05:44:59.965Z,90.66
2022-10-15T05:46:02.143Z,90.94
2022-10-15T05:47:04.178Z,90.87
2022-10-15T05:48:08.188Z,90.74
2022-10-15T05:49:10.447Z,90.78
2022-10-15T05:50:24.923Z,90.78
2022-10-15T05:51:29.340Z,90.84
2022-10-15T05:52:35.806Z,90.81
2022-10-15T05:53:59.033Z,90.86
2022-10-15T05:55:02.024Z,90.90
2022-10-15T05:56:05.014Z,90.84
2022-10-15T05:57:07.017Z,90.96
2022-10-15T05:58:08.855Z,90.79
2022-10-15T05:59:12.184Z,90.90
2022-10-15T06:00:14.807Z,91.14
2022-10-15T06:01:16.944Z,90.96
2022-10-15T06:02:24.144Z,91.16
2022-10-15T06:03:27.151Z,91.08
2022-10-15T06:04:31.776Z,91.33
2022-10-15T06:05:36.864Z,91.27
2022-10-15T06:06:38.676Z,91.33
2022-10-15T06:07:41.268Z,91.39
2022-10-15T06:08:43.519Z,91.41
2022-10-15T06:09:45.490Z,91.32
2022-10-15T06:10:47.960Z,91.37
2022-10-15T06:11:49.770Z,91.30
2022-10-15T06:12:53.368Z,91.36
2022-10-15T06:13:55.016Z,91.15
2022-10-15T06:14:56.981Z,91.38
2022-10-15T06:15:58.754Z,91.36
2022-10-15T06:17:00.628Z,91.20
2022-10-15T06:18:04.875Z,91.09
2022-10-15T06:19:07.234Z,91.03
2022-10-15T06:20:09.909Z,91.15
2022-10-15T06:21:14.335Z,91.43
2022-10-15T06:22:16.409Z,91.15
2022-10-15T06:23:19.461Z,91.23
2022-10-15T06:24:21.248Z,91.28
2022-10-15T06:25:25.626Z,91.20
2022-10-15T06:26:27.418Z,91.11
2022-10-15T06:27:29.853Z,91.32
2022-10-15T06:28:32.493Z,91.28
2022-10-15T06:29:36.800Z,91.29
2022-10-15T06:30:38.750Z,91.38
2022-10-15T06:31:40.594Z,91.63
2022-10-15T06:32:52.588Z,91.61
2022-10-15T06:33:54.369Z,91.96
2022-10-15T06:34:56.385Z,91.97
2022-10-15T06:36:09.261Z,91.73
2022-10-15T06:37:10.944Z,91.76
2022-10-15T06:38:12.731Z,91.76
2022-10-15T06:39:14.617Z,91.62
2022-10-15T06:40:16.948Z,91.57
2022-10-15T06:41:18.866Z,91.73
2022-10-15T06:42:20.682Z,92.03
2022-10-15T06:43:23.368Z,91.91
2022-10-15T06:44:25.126Z,91.81
2022-10-15T06:45:26.941Z,91.85
2022-10-15T06:46:28.676Z,91.68
2022-10-15T06:47:30.432Z,91.87
2022-10-15T06:48:32.828Z,92.08
2022-10-15T06:49:34.669Z,91.96
2022-10-15T06:50:38.373Z,91.98
2022-10-15T06:51:40.148Z,92.33
2022-10-15T06:52:41.931Z,92.53
2022-10-15T06:53:44.926Z,92.29
2022-10-15T06:54:46.693Z,92.12
2022-10-15T06:55:48.918Z,92.22
2022-10-15T06:56:51.383Z,92.29
2022-10-15T06:57:53.139Z,92.32
2022-10-15T06:58:57.153Z,92.17
2022-10-15T06:59:58.998Z,92.37
2022-10-15T07:01:02.917Z,92.59
2022-10-15T07:02:04.752Z,92.45
2022-10-15T07:03:07.212Z,92.68
2022-10-15T07:04:09.378Z,92.65
2022-10-15T07:05:11.276Z,92.53
2022-10-15T07:06:13.100Z,92.54
2022-10-15T07:07:15.041Z,92.67
2022-10-15T07:08:19.275Z,92.68
2022-10-15T07:09:21.448Z,92.88
2022-10-15T07:10:25.241Z,93.01
2022-10-15T07:11:27.009Z,93.10
2022-10-15T07:12:28.959Z,93.22
2022-10-15T07:13:31.244Z,93.27
2022-10-15T07:14:33.170Z,93.32
2022-10-15T07:15:36.644Z,93.28
2022-10-15T07:16:39.440Z,93.22
2022-10-15T07:17:51.956Z,93.46
2022-10-15T07:18:53.776Z,93.49
2022-10-15T07:19:55.636Z,93.62
2022-10-15T07:20:57.847Z,93.56
2022-10-15T07:21:59.966Z,93.76
2022-10-15T07:23:02.361Z,93.62
2022-10-15T07:24:05.758Z,93.62
2022-10-15T07:25:09.703Z,93.86
2022-10-15T07:26:12.135Z,93.91
2022-10-15T07:27:21.106Z,93.79
2022-10-15T07:28:23.257Z,93.83
2022-10-15T07:29:25.029Z,93.64
2022-10-15T07:30:27.899Z,93.42
2022-10-15T07:31:30.533Z,93.53
2022-10-15T07:32:32.557Z,93.72
2022-10-15T07:33:35.029Z,93.81
2022-10-15T07:34:37.045Z,93.94
2022-10-15T07:35:38.895Z,93.89
2022-10-15T07:36:40.723Z,93.89
2022-10-15T07:37:42.464Z,93.77
2022-10-15T07:38:44.283Z,93.85
2022-10-15T07:39:46.104Z,93.72
2022-10-15T07:40:48.125Z,93.79
2022-10-15T07:41:50.264Z,93.86
2022-10-15T07:42:53.723Z,93.78
2022-10-15T07:43:57.085Z,93.95
2022-10-15T07:44:59.085Z,93.95
2022-10-15T07:46:01.537Z,93.77
2022-10-15T07:47:03.568Z,94.04
2022-10-15T07:48:08.359Z,93.95
2022-10-15T07:49:12.083Z,93.87
2022-10-15T07:50:14.109Z,94.11
2022-10-15T07:52:23.226Z,94.11
2022-10-15T07:53:26.057Z,94.51
2022-10-15T07:54:32.809Z,94.47
2022-10-15T07:55:35.235Z,94.31
2022-10-15T07:56:37.019Z,93.99
2022-10-15T07:57:39.315Z,93.79
2022-10-15T07:58:42.514Z,94.08
2022-10-15T07:59:44.526Z,93.97
2022-10-15T08:00:46.642Z,93.90
2022-10-15T08:01:50.726Z,94.25
2022-10-15T08:02:52.568Z,94.36
2022-10-15T08:03:54.935Z,94.11
2022-10-15T08:04:56.767Z,93.98
2022-10-15T08:06:03.953Z,94.43
2022-10-15T08:07:10.298Z,94.35
2022-10-15T08:08:12.419Z,94.43
2022-10-15T08:09:14.319Z,94.16
2022-10-15T08:10:18.119Z,94.47
2022-10-15T08:11:20.272Z,94.39
2022-10-15T08:12:22.252Z,94.45
2022-10-15T08:13:24.455Z,94.42
2022-10-15T08:14:30.763Z,94.36
2022-10-15T08:15:32.584Z,94.30
2022-10-15T08:16:35.008Z,94.49
2022-10-15T08:17:36.988Z,94.62
2022-10-15T08:18:39.929Z,94.57
2022-10-15T08:19:41.843Z,94.56
2022-10-15T08:20:43.774Z,94.58
2022-10-15T08:21:47.423Z,94.81
2022-10-15T08:22:49.472Z,94.89
2022-10-15T08:23:53.299Z,94.88
2022-10-15T08:24:58.013Z,94.98
2022-10-15T08:26:00.732Z,95.05
2022-10-15T08:27:02.656Z,94.97
2022-10-15T08:28:04.642Z,94.93
2022-10-15T08:29:06.604Z,95.08
2022-10-15T08:30:09.042Z,95.11
2022-10-15T08:31:10.999Z,95.08
2022-10-15T08:32:13.336Z,95.35
2022-10-15T08:33:15.556Z,95.38
2022-10-15T08:34:17.274Z,95.68
2022-10-15T08:35:19.099Z,95.69
2022-10-15T08:36:21.015Z,95.74
2022-10-15T08:37:23.435Z,95.79
2022-10-15T08:38:25.617Z,95.40
2022-10-15T08:39:27.504Z,95.38
2022-10-15T08:40:29.484Z,95.49
2022-10-15T08:41:45.570Z,95.33
2022-10-15T08:42:48.929Z,95.33
2022-10-15T08:43:51.318Z,94.97
2022-10-15T08:45:03.267Z,95.10
2022-10-15T08:47:39.873Z,95.24
2022-10-15T08:48:48.895Z,95.12
2022-10-15T08:49:53.905Z,95.37
2022-10-15T08:51:00.592Z,95.49
2022-10-15T08:52:22.674Z,95.65
2022-10-15T08:53:25.938Z,95.86
2022-10-15T08:54:37.834Z,95.70
2022-10-15T08:55:44.150Z,95.48
2022-10-15T08:56:54.236Z,95.53
2022-10-15T08:58:15.522Z,95.47
2022-10-15T08:59:41.318Z,95.54
2022-10-15T09:00:45.952Z,95.49
2022-10-15T09:01:50.315Z,95.59
2022-10-15T09:03:33.247Z,95.52
2022-10-15T09:05:10.006Z,95.58
2022-10-15T09:06:19.371Z,95.85
2022-10-15T09:07:36.367Z,95.93
2022-10-15T09:08:51.400Z,95.76
2022-10-15T09:10:12.369Z,95.62
2022-10-15T09:11:43.604Z,96.04
2022-10-15T09:12:50.324Z,96.28
2022-10-15T09:13:52.436Z,96.33
2022-10-15T09:15:02.380Z,96.21
2022-10-15T09:16:17.357Z,95.91
2022-10-15T09:17:25.181Z,95.87
2022-10-15T09:18:32.661Z,96.13
2022-10-15T09:19:37.382Z,96.22
2022-10-15T09:20:43.340Z,96.11
2022-10-15T09:21:51.700Z,95.85
2022-10-15T09:22:56.675Z,95.82
2022-10-15T09:24:02.353Z,96.46
2022-10-15T09:25:19.247Z,96.29
2022-10-15T09:26:27.909Z,96.46
2022-10-15T09:27:29.722Z,96.67
2022-10-15T09:28:52.585Z,96.53
2022-10-15T09:30:10.799Z,96.32
2022-10-15T09:31:22.314Z,96.08
2022-10-15T09:32:53.498Z,96.02
2022-10-15T09:34:21.438Z,96.31
2022-10-15T09:35:47.184Z,96.71
2022-10-15T09:36:56.696Z,96.30
2022-10-15T09:38:06.840Z,96.50
2022-10-15T09:39:53.428Z,96.32
2022-10-15T09:40:57.959Z,96.51
2022-10-15T09:42:35.794Z,96.47
2022-10-15T09:43:40.460Z,96.45
2022-10-15T09:44:45.245Z,96.87
2022-10-15T09:45:47.010Z,96.67
2022-10-15T09:46:50.733Z,96.36
2022-10-15T09:47:57.126Z,96.39
2022-10-15T09:49:08.663Z,96.44
2022-10-15T09:50:13.642Z,96.47
2022-10-15T09:51:29.268Z,96.69
2022-10-15T09:52:46.209Z,96.66
2022-10-15T09:54:16.454Z,96.43
2022-10-15T09:55:32.668Z,96.57
2022-10-15T09:56:50.166Z,96.61
2022-10-15T09:57:56.370Z,96.70
2022-10-15T09:58:59.112Z,97.03
2022-10-15T10:00:04.254Z,97.21
2022-10-15T10:01:22.832Z,97.25
2022-10-15T10:02:25.816Z,97.27
2022-10-15T10:03:30.370Z,97.40
2022-10-15T10:04:34.512Z,97.59
2022-10-15T10:05:39.705Z,97.57
2022-10-15T10:07:08.667Z,97.56
2022-10-15T10:08:37.210Z,97.24
2022-10-15T10:09:50.591Z,97.26
2022-10-15T10:10:58.592Z,97.29
2022-10-15T10:12:05.755Z,97.49
2022-10-15T10:13:29.844Z,97.56
2022-10-15T10:14:35.650Z,97.52
2022-10-15T10:15:41.574Z,97.51
2022-10-15T10:17:05.116Z,97.49
2022-10-15T10:18:19.249Z,97.48
2022-10-15T10:19:21.627Z,97.56
2022-10-15T10:20:28.853Z,97.53
2022-10-15T10:21:34.516Z,97.63
2022-10-15T10:22:51.397Z,97.59
2022-10-15T10:23:53.697Z,97.71
2022-10-15T10:24:55.582Z,97.71
2022-10-15T10:26:03.686Z,97.60
2022-10-15T10:27:28.844Z,97.68
2022-10-15T10:28:37.262Z,97.52
2022-10-15T10:29:43.440Z,97.76
2022-10-15T10:31:03.286Z,97.85
2022-10-15T10:32:21.027Z,97.89
2022-10-15T10:33:34.952Z,97.84
2022-10-15T10:34:36.984Z,97.74
2022-10-15T10:35:49.617Z,97.88
2022-10-15T10:36:52.604Z,97.97
2022-10-15T10:37:54.704Z,97.99
2022-10-15T10:39:14.083Z,97.99
2022-10-15T10:40:33.853Z,97.82
2022-10-15T10:41:57.902Z,97.81
2022-10-15T10:43:28.837Z,97.91
2022-10-15T10:44:39.041Z,97.52
2022-10-15T10:45:56.556Z,97.65
2022-10-15T10:47:20.259Z,97.26
2022-10-15T10:48:27.600Z,97.44
2022-10-15T10:49:38.108Z,97.61
2022-10-15T10:50:43.318Z,97.65
2022-10-15T10:51:49.458Z,97.78
2022-10-15T10:52:51.264Z,97.63
2022-10-15T10:54:01.430Z,97.81
2022-10-15T10:55:18.363Z,98.01
2022-10-15T10:56:24.165Z,97.89
2022-10-15T10:57:49.928Z,97.90
2022-10-15T10:58:59.106Z,98.07
2022-10-15T11:00:04.159Z,98.14
2022-10-15T11:01:06.208Z,98.08
2022-10-15T11:02:11.810Z,98.09
2022-10-15T11:03:51.953Z,98.09
2022-10-15T11:04:53.844Z,98.13
2022-10-15T11:06:42.747Z,98.32
2022-10-15T11:08:04.094Z,98.17
2022-10-15T11:09:24.008Z,98.00
2022-10-15T11:10:51.134Z,97.86
2022-10-15T11:12:05.250Z,97.98
2022-10-15T11:13:17.249Z,97.71
2022-10-15T11:14:18.972Z,97.75
2022-10-15T11:15:30.670Z,98.05
2022-10-15T11:16:50.434Z,98.05
2022-10-15T11:18:47.840Z,97.76
2022-10-15T11:20:20.051Z,97.91
2022-10-15T11:21:25.259Z,97.65
2022-10-15T11:23:14.716Z,97.17
2022-10-15T11:24:33.508Z,96.22
2022-10-15T11:25:49.069Z,96.63
2022-10-15T11:27:11.382Z,96.05
2022-10-15T11:28:51.552Z,96.41
2022-10-15T11:30:20.322Z,96.31
2022-10-15T11:31:27.300Z,96.08
2022-10-15T11:33:08.848Z,95.91
2022-10-15T11:34:21.511Z,96.31
2022-10-15T11:35:59.099Z,95.89
2022-10-15T11:37:52.221Z,96.11
2022-10-15T11:39:03.116Z,96.01
2022-10-15T11:40:19.699Z,96.29
2022-10-15T11:41:57.061Z,96.06
2022-10-15T11:43:28.173Z,95.86
2022-10-15T11:45:07.384Z,96.08
2022-10-15T11:46:14.961Z,96.42
2022-10-15T11:47:28.345Z,96.34
2022-10-15T11:49:18.575Z,96.10
2022-10-15T11:50:39.314Z,95.98
2022-10-15T11:52:09.090Z,95.94
2022-10-15T11:53:39.509Z,96.36
2022-10-15T11:54:43.129Z,96.03
2022-10-15T11:55:56.438Z,96.23
2022-10-15T11:57:01.669Z,95.65
2022-10-15T11:58:11.123Z,95.78
2022-10-15T11:59:33.085Z,95.74
2022-10-15T12:00:45.426Z,95.99
2022-10-15T12:01:57.624Z,96.16
2022-10-15T12:03:11.975Z,96.13
2022-10-15T12:04:31.791Z,96.21
2022-10-15T12:05:52.594Z,95.93
2022-10-15T12:06:58.471Z,96.03
2022-10-15T12:08:01.305Z,96.26
2022-10-15T12:09:04.997Z,96.19
2022-10-15T12:10:43.863Z,95.87
2022-10-15T12:11:52.919Z,96.16
2022-10-15T12:13:13.759Z,96.14
2022-10-15T12:14:18.355Z,96.30
2022-10-15T12:15:41.599Z,96.27
2022-10-15T12:16:59.175Z,96.39
2022-10-15T12:18:14.802Z,96.28
2022-10-15T12:19:22.199Z,96.44
2022-10-15T12:20:26.828Z,96.23
2022-10-15T12:22:06.299Z,95.95
2022-10-15T12:23:38.596Z,96.08
2022-10-15T12:24:51.183Z,95.73
2022-10-15T12:25:53.103Z,95.92
2022-10-15T12:26:55.415Z,95.96
2022-10-15T12:28:13.985Z,96.02
2022-10-15T12:29:27.053Z,95.12
2022-10-15T12:30:36.548Z,95.55
2022-10-15T12:31:55.874Z,96.13
2022-10-15T12:33:03.703Z,96.04
2022-10-15T12:34:05.748Z,96.04
2022-10-15T12:35:38.440Z,95.81
2022-10-15T12:36:42.213Z,95.42
2022-10-15T12:37:47.595Z,96.06
2022-10-15T12:39:16.122Z,95.89
2022-10-15T12:40:31.094Z,95.67
2022-10-15T12:41:40.852Z,95.59
2022-10-15T12:42:43.083Z,95.83
2022-10-15T12:44:03.640Z,95.85
2022-10-15T12:45:19.830Z,95.89
2022-10-15T12:46:21.653Z,95.08
2022-10-15T12:47:46.499Z,95.37
2022-10-15T12:48:48.447Z,95.58
2022-10-15T12:50:02.653Z,95.47
2022-10-15T12:51:16.848Z,95.31
2022-10-15T12:52:49.052Z,94.51
2022-10-15T12:53:57.192Z,94.58
2022-10-15T12:55:27.292Z,94.39
2022-10-15T12:56:39.645Z,94.61
2022-10-15T12:57:44.531Z,94.88
2022-10-15T12:58:57.803Z,94.99
2022-10-15T13:00:01.718Z,94.81
2022-10-15T13:01:27.578Z,94.86
2022-10-15T13:03:48.335Z,94.23
2022-10-15T13:04:50.266Z,94.10
2022-10-15T13:05:54.718Z,94.13
2022-10-15T13:07:13.727Z,94.15
2022-10-15T13:08:25.408Z,94.31
2022-10-15T13:09:30.119Z,93.89
2022-10-15T13:10:40.037Z,94.10
2022-10-15T13:13:01.344Z,94.35
2022-10-15T13:14:31.436Z,94.24
2022-10-15T13:15:34.605Z,93.93
2022-10-15T13:16:36.554Z,93.66
2022-10-15T13:17:39.489Z,94.00
2022-10-15T13:18:47.124Z,94.26
2022-10-15T13:20:07.472Z,94.46
2022-10-15T13:21:11.404Z,94.40
2022-10-15T13:22:22.890Z,94.54
2022-10-15T13:23:31.734Z,94.32
2022-10-15T13:24:42.828Z,94.32
2022-10-15T13:25:49.563Z,93.17
2022-10-15T13:26:54.029Z,93.83
2022-10-15T13:27:55.773Z,93.48
2022-10-15T13:28:58.039Z,93.88
2022-10-15T13:30:08.041Z,93.90
2022-10-15T13:31:18.863Z,93.99
2022-10-15T13:32:22.223Z,93.89
2022-10-15T13:33:25.378Z,93.11
2022-10-15T13:34:29.309Z,93.17
2022-10-15T13:35:38.524Z,93.67
2022-10-15T13:36:40.532Z,93.83
2022-10-15T13:37:43.224Z,93.90
2022-10-15T13:38:52.719Z,94.11
2022-10-15T13:39:56.552Z,93.67
2022-10-15T13:41:00.974Z,93.68
2022-10-15T13:42:13.134Z,93.70
2022-10-15T13:43:22.876Z,93.36
2022-10-15T13:44:24.793Z,93.54
2022-10-15T13:45:27.203Z,93.52
2022-10-15T13:46:47.091Z,93.44
2022-10-15T13:47:52.774Z,92.59
2022-10-15T13:49:03.597Z,92.33
2022-10-15T13:50:11.229Z,92.92
2022-10-15T13:51:13.808Z,92.74
2022-10-15T13:52:16.065Z,93.16
2022-10-15T13:53:41.303Z,92.02
2022-10-15T13:54:46.105Z,92.59
2022-10-15T13:55:50.791Z,92.76
2022-10-15T13:56:55.477Z,91.73
2022-10-15T13:58:01.794Z,92.01
2022-10-15T13:59:04.448Z,91.54
2022-10-15T14:00:07.083Z,91.56
2022-10-15T14:01:15.390Z,92.20
2022-10-15T14:02:17.308Z,91.36
2022-10-15T14:03:25.891Z,91.40
2022-10-15T14:04:31.137Z,91.68
2022-10-15T14:05:36.058Z,91.96
2022-10-15T14:06:38.661Z,91.95
2022-10-15T14:07:40.595Z,91.61
2022-10-15T14:08:42.382Z,91.91
2022-10-15T14:09:46.877Z,91.98
2022-10-15T14:10:50.653Z,91.25
2022-10-15T14:11:53.803Z,91.23
2022-10-15T14:12:55.873Z,91.85
2022-10-15T14:13:58.853Z,91.02
2022-10-15T14:15:38.116Z,91.53
2022-10-15T14:16:46.355Z,91.40
2022-10-15T14:17:51.083Z,91.72
2022-10-15T14:19:18.627Z,91.77
2022-10-15T14:20:27.263Z,90.94
2022-10-15T14:21:31.934Z,91.06
2022-10-15T14:22:34.702Z,91.60
2022-10-15T14:23:36.593Z,91.57
2022-10-15T14:24:39.925Z,91.42
2022-10-15T14:25:41.748Z,91.63
2022-10-15T14:26:44.278Z,91.69
2022-10-15T14:27:46.131Z,91.80
2022-10-15T14:28:51.450Z,91.46
2022-10-15T14:29:55.970Z,91.65
2022-10-15T14:30:59.983Z,91.47
2022-10-15T14:32:01.837Z,91.66
2022-10-15T14:33:03.655Z,91.80
2022-10-15T14:34:37.984Z,91.60
2022-10-15T14:35:40.630Z,91.45
2022-10-15T14:36:42.621Z,91.72
2022-10-15T14:37:44.903Z,91.87
2022-10-15T14:38:47.430Z,92.16
2022-10-15T14:39:49.606Z,92.07
2022-10-15T14:41:06.451Z,92.14
2022-10-15T14:42:27.364Z,91.23
2022-10-15T14:43:36.692Z,91.71
2022-10-15T14:44:47.554Z,91.66
2022-10-15T14:45:52.178Z,90.04
2022-10-15T14:47:01.693Z,90.74
2022-10-15T14:48:22.608Z,91.08
2022-10-15T14:49:28.783Z,91.47
2022-10-15T14:50:33.588Z,91.49
2022-10-15T14:51:35.455Z,90.59
2022-10-15T14:52:44.433Z,91.15
2022-10-15T14:53:46.815Z,90.81
2022-10-15T14:55:15.330Z,90.57